Decoded Metar for KNUW (WHIDBEY ISLAND in WA, USA) (IATA:NUW) | Meteo·Mobile Aviation Weather
aviador You're here:

KNUW Decoded Metar

WHIDBEY ISLAND in WA, USA
Report Time2018-10-23 19:56:00
UTC Time2018-10-23 20:08:39
Flight Rules mvfr MVFR
Wind160° at 09 kt
W.Decomp.*RWY 14: 9.0 kt HW 0.3 kt RCW
RWY 07: 2.8 kt HW 8.6 kt RCW
W.Rank160° ranks 14
Current wind is below 160° avg. (10.1)
Visibility9656 m
Phenomena:Mist
Clouds:Few 005 Hf
Scattered 010 Hf
Broken 016 Hf
Expected CloudBase > 1,200 ft AGL from Temp-Dew spread
Ceiling1,600 ft
Temp12°C (ISA -3)
Dew Point09°C (82% RH)
AAT8.5°C
QNH1014 hPa
Density Alt-180 ft
Elevation46 ft
Report Wrong Elevation
Raw Report
KNUW 231956Z 16009KT 6SM BR FEW005 SCT010 BKN016 12/09 A2995 RMK
AO2 SLP142 T01170094 $=

Extra information for KNUW:More info

Metar Taf Metar & Taf Last 4 Metars F.Rules Stats Wind Profile Meteogram Temp Stats Airport Information Weather charts Add Link Nearby VenuesMetar ALERT Operation Metar Decoded Social comments

AIRNAV info for KNUW